createdAt,value
2024-04-22T00:00:57.055Z,3.55
2024-04-22T00:03:23.709Z,3.56
2024-04-22T00:05:54.196Z,3.57
2024-04-22T00:08:20.875Z,3.55
2024-04-22T00:10:47.522Z,3.52
2024-04-22T00:13:14.154Z,3.49
2024-04-22T00:15:40.784Z,3.49
2024-04-22T00:18:07.451Z,3.53
2024-04-22T00:20:34.125Z,3.55
2024-04-22T00:23:00.691Z,3.56
2024-04-22T00:25:27.295Z,3.55
2024-04-22T00:27:53.916Z,3.54
2024-04-22T00:30:20.503Z,3.48
2024-04-22T00:32:47.176Z,3.44
2024-04-22T00:35:13.785Z,3.47
2024-04-22T00:37:40.635Z,3.49
2024-04-22T00:40:07.929Z,3.49
2024-04-22T00:42:34.592Z,3.49
2024-04-22T00:45:01.177Z,3.48
2024-04-22T00:47:27.968Z,3.49
2024-04-22T00:49:54.961Z,3.47
2024-04-22T00:52:21.699Z,3.47
2024-04-22T00:54:48.460Z,3.41
2024-04-22T00:57:17.071Z,3.42
2024-04-22T00:59:44.111Z,3.37
2024-04-22T01:02:10.904Z,3.31
2024-04-22T01:04:37.837Z,3.33
2024-04-22T01:07:05.322Z,3.34
2024-04-22T01:09:31.937Z,3.33
2024-04-22T01:11:58.685Z,3.33
2024-04-22T01:14:25.446Z,3.25
2024-04-22T01:16:55.815Z,3.22
2024-04-22T01:19:23.491Z,3.20
2024-04-22T01:21:54.098Z,3.23
2024-04-22T01:24:20.805Z,3.21
2024-04-22T01:26:49.167Z,3.20
2024-04-22T01:29:16.409Z,3.16
2024-04-22T01:31:43.025Z,3.10
2024-04-22T01:34:09.666Z,3.06
2024-04-22T01:36:41.907Z,3.06
2024-04-22T01:39:11.539Z,3.07
2024-04-22T01:41:38.153Z,3.06
2024-04-22T01:44:04.898Z,3.03
2024-04-22T01:46:31.837Z,3.01
2024-04-22T01:48:58.572Z,2.97
2024-04-22T01:51:25.147Z,3.01
2024-04-22T01:53:51.912Z,3.05
2024-04-22T01:56:18.479Z,3.02
2024-04-22T01:58:46.144Z,3.04
2024-04-22T02:01:13.000Z,2.99
2024-04-22T02:03:39.694Z,2.96
2024-04-22T02:06:06.359Z,2.97
2024-04-22T02:08:33.319Z,2.96
2024-04-22T02:10:59.995Z,3.00
2024-04-22T02:13:26.809Z,2.96
2024-04-22T02:15:53.449Z,2.90
2024-04-22T02:18:20.075Z,2.90
2024-04-22T02:20:46.669Z,2.89
2024-04-22T02:23:13.585Z,2.88
2024-04-22T02:25:41.007Z,2.88
2024-04-22T02:28:07.863Z,2.88
2024-04-22T02:30:34.470Z,2.90
2024-04-22T02:33:01.132Z,2.93
2024-04-22T02:35:27.955Z,2.93
2024-04-22T02:37:54.545Z,2.88
2024-04-22T02:40:21.143Z,2.89
2024-04-22T02:42:47.956Z,2.91
2024-04-22T02:45:14.615Z,2.89
2024-04-22T02:47:41.373Z,2.86
2024-04-22T02:50:08.184Z,2.93
2024-04-22T02:52:34.865Z,2.92
2024-04-22T02:55:01.633Z,2.93
2024-04-22T02:57:28.271Z,2.90
2024-04-22T02:59:54.851Z,2.85
2024-04-22T03:02:21.523Z,2.83
2024-04-22T03:04:51.662Z,2.83
2024-04-22T03:07:18.289Z,2.79
2024-04-22T03:09:45.700Z,2.74
2024-04-22T03:12:13.258Z,2.69
2024-04-22T03:14:40.132Z,2.71
2024-04-22T03:17:06.809Z,2.73
2024-04-22T03:19:33.562Z,2.73
2024-04-22T03:22:00.196Z,2.75
2024-04-22T03:24:26.790Z,2.74
2024-04-22T03:26:53.460Z,2.72
2024-04-22T03:29:20.016Z,2.71
2024-04-22T03:31:46.734Z,2.64
2024-04-22T03:34:13.458Z,2.66
2024-04-22T03:36:40.109Z,2.65
2024-04-22T03:39:06.699Z,2.69
2024-04-22T03:41:33.284Z,2.69
2024-04-22T03:43:59.867Z,2.70
2024-04-22T03:46:44.869Z,2.69
2024-04-22T03:49:30.224Z,2.71
2024-04-22T03:51:56.800Z,2.70
2024-04-22T03:54:23.415Z,2.67
2024-04-22T03:56:49.979Z,2.67
2024-04-22T03:59:16.559Z,2.70
2024-04-22T04:01:43.807Z,2.69
2024-04-22T04:04:10.655Z,2.72
2024-04-22T04:06:37.291Z,2.75
2024-04-22T04:09:03.902Z,2.74
2024-04-22T04:11:37.641Z,2.66
2024-04-22T04:14:08.540Z,2.58
2024-04-22T04:16:36.036Z,2.54
2024-04-22T04:19:03.724Z,2.53
2024-04-22T04:21:30.359Z,2.51
2024-04-22T04:23:56.986Z,2.52
2024-04-22T04:26:23.643Z,2.46
2024-04-22T04:28:50.971Z,2.42
2024-04-22T04:31:18.820Z,2.42
2024-04-22T04:33:45.666Z,2.37
2024-04-22T04:36:12.295Z,2.35
2024-04-22T04:38:39.136Z,2.35
2024-04-22T04:41:05.747Z,2.31
2024-04-22T04:43:33.227Z,2.23
2024-04-22T04:46:00.518Z,2.16
2024-04-22T04:48:27.329Z,2.16
2024-04-22T04:50:54.151Z,2.17
2024-04-22T04:53:22.486Z,2.20
2024-04-22T04:55:49.589Z,2.15
2024-04-22T04:58:16.754Z,2.23
2024-04-22T05:00:43.538Z,2.27
2024-04-22T05:03:10.451Z,2.25
2024-04-22T05:05:37.087Z,2.27
2024-04-22T05:08:05.138Z,2.31
2024-04-22T05:10:31.988Z,2.37
2024-04-22T05:12:58.683Z,2.45
2024-04-22T05:15:26.132Z,2.48
2024-04-22T05:17:52.848Z,2.51
2024-04-22T05:20:19.549Z,2.57
2024-04-22T05:22:46.223Z,2.63
2024-04-22T05:25:12.966Z,2.73
2024-04-22T05:27:39.602Z,2.81
2024-04-22T05:30:06.791Z,2.87
2024-04-22T05:32:33.880Z,2.86
2024-04-22T05:35:19.329Z,2.90
2024-04-22T05:37:45.995Z,2.88
2024-04-22T05:40:12.620Z,2.89
2024-04-22T05:42:39.353Z,2.92
2024-04-22T05:45:06.234Z,2.91
2024-04-22T05:47:32.922Z,2.95
2024-04-22T05:50:01.243Z,2.93
2024-04-22T05:52:28.527Z,2.95
2024-04-22T05:54:55.480Z,2.98
2024-04-22T05:57:22.395Z,2.93
2024-04-22T05:59:49.094Z,2.92
2024-04-22T06:02:15.728Z,2.92
2024-04-22T06:04:42.407Z,2.92
2024-04-22T06:07:09.208Z,2.90
2024-04-22T06:09:35.864Z,2.83
2024-04-22T06:12:11.640Z,2.84
2024-04-22T06:14:44.445Z,2.83
2024-04-22T06:17:11.220Z,2.70
2024-04-22T06:19:38.191Z,2.76
2024-04-22T06:22:04.831Z,2.82
2024-04-22T06:24:33.053Z,2.85
2024-04-22T06:26:59.699Z,2.81
2024-04-22T06:29:26.261Z,2.82
2024-04-22T06:31:52.938Z,2.79
2024-04-22T06:34:19.592Z,2.75
2024-04-22T06:36:46.234Z,2.78
2024-04-22T06:39:12.823Z,2.78
2024-04-22T06:41:39.511Z,2.73
2024-04-22T06:44:06.308Z,2.75
2024-04-22T06:46:33.720Z,2.81
2024-04-22T06:49:00.487Z,2.82
2024-04-22T06:51:27.065Z,2.78
2024-04-22T06:53:53.669Z,2.78
2024-04-22T06:56:20.338Z,2.80
2024-04-22T06:58:47.026Z,2.86
2024-04-22T07:01:23.911Z,2.90
2024-04-22T07:03:59.118Z,2.91
2024-04-22T07:06:25.935Z,2.90
2024-04-22T07:08:52.685Z,2.94
2024-04-22T07:11:19.468Z,2.97
2024-04-22T07:13:46.189Z,3.02
2024-04-22T07:16:15.239Z,2.98
2024-04-22T07:18:41.996Z,3.04
2024-04-22T07:21:08.601Z,3.13
2024-04-22T07:23:35.247Z,3.24
2024-04-22T07:26:05.425Z,3.29
2024-04-22T07:28:32.814Z,3.33
2024-04-22T07:30:59.740Z,3.35
2024-04-22T07:33:30.846Z,3.36
2024-04-22T07:36:15.279Z,3.46
2024-04-22T07:38:44.478Z,3.52
2024-04-22T07:41:11.332Z,3.54
2024-04-22T07:43:37.943Z,3.48
2024-04-22T07:46:04.762Z,3.45
2024-04-22T07:48:31.358Z,3.44
2024-04-22T07:50:57.965Z,3.44
2024-04-22T07:53:24.763Z,3.44
2024-04-22T07:55:51.730Z,3.40
2024-04-22T07:58:18.647Z,3.34
2024-04-22T08:00:45.829Z,3.40
2024-04-22T08:03:12.671Z,3.40
2024-04-22T08:05:39.617Z,3.41
2024-04-22T08:08:07.146Z,3.47
2024-04-22T08:10:33.859Z,3.49
2024-04-22T08:13:00.454Z,3.56
2024-04-22T08:15:27.588Z,3.57
2024-04-22T08:17:54.277Z,3.57
2024-04-22T08:20:20.964Z,3.49
2024-04-22T08:22:47.643Z,3.44
2024-04-22T08:25:14.494Z,3.47
2024-04-22T08:27:43.094Z,3.50
2024-04-22T08:30:10.446Z,3.57
2024-04-22T08:32:38.170Z,3.62
2024-04-22T08:35:05.261Z,3.62
2024-04-22T08:37:32.011Z,3.63
2024-04-22T08:39:58.883Z,3.61
2024-04-22T08:42:25.645Z,3.70
2024-04-22T08:44:53.508Z,3.77
2024-04-22T08:47:20.849Z,3.82
2024-04-22T08:49:47.581Z,3.89
2024-04-22T08:52:16.105Z,3.92
2024-04-22T08:54:42.863Z,3.94
2024-04-22T08:57:09.572Z,3.96
2024-04-22T08:59:40.465Z,3.99
2024-04-22T09:02:08.594Z,4.04
2024-04-22T09:04:35.572Z,4.09
2024-04-22T09:07:06.547Z,4.17
2024-04-22T09:09:42.478Z,4.09
2024-04-22T09:12:20.057Z,4.17
2024-04-22T09:14:47.153Z,4.23
2024-04-22T09:17:20.401Z,4.34
2024-04-22T09:19:47.991Z,4.39
2024-04-22T09:22:16.565Z,4.48
2024-04-22T09:24:46.085Z,4.73
2024-04-22T09:27:12.870Z,4.97
2024-04-22T09:29:43.827Z,5.21
2024-04-22T09:32:14.631Z,5.48
2024-04-22T09:34:43.357Z,5.67
2024-04-22T09:37:10.964Z,5.96
2024-04-22T09:39:39.020Z,6.23
2024-04-22T09:42:06.110Z,6.35
2024-04-22T09:44:34.154Z,6.58
2024-04-22T09:47:01.737Z,6.80
2024-04-22T09:49:31.220Z,6.91
2024-04-22T09:52:00.996Z,7.06
2024-04-22T09:54:27.761Z,7.25
2024-04-22T09:56:54.932Z,7.56
2024-04-22T09:59:21.998Z,7.73
2024-04-22T10:01:48.886Z,7.85
2024-04-22T10:04:16.328Z,7.91
2024-04-22T10:06:43.447Z,7.95
2024-04-22T10:09:16.481Z,8.06
2024-04-22T10:11:44.398Z,8.17
2024-04-22T10:14:13.170Z,8.24
2024-04-22T10:16:40.389Z,8.34
2024-04-22T10:19:10.012Z,8.26
2024-04-22T10:21:43.542Z,8.14
2024-04-22T10:24:10.164Z,8.11
2024-04-22T10:26:52.622Z,8.16
2024-04-22T10:29:23.664Z,8.05
2024-04-22T10:31:50.722Z,8.13
2024-04-22T10:34:17.492Z,8.25
2024-04-22T10:36:44.145Z,8.41
2024-04-22T10:39:10.743Z,8.58
2024-04-22T10:41:37.400Z,8.65
2024-04-22T10:44:04.500Z,8.78
2024-04-22T10:46:31.226Z,8.95
2024-04-22T10:48:58.104Z,9.29
2024-04-22T10:51:24.764Z,9.36
2024-04-22T10:53:55.494Z,9.43
2024-04-22T10:56:23.220Z,9.37
2024-04-22T10:58:52.119Z,9.22
2024-04-22T11:01:20.051Z,8.88
2024-04-22T11:03:47.001Z,8.72
2024-04-22T11:06:14.529Z,8.61
2024-04-22T11:08:42.769Z,8.63
2024-04-22T11:11:10.208Z,8.60
2024-04-22T11:13:38.740Z,8.76
2024-04-22T11:16:11.202Z,9.07
2024-04-22T11:18:39.044Z,9.19
2024-04-22T11:21:06.200Z,9.13
2024-04-22T11:23:33.534Z,8.98
2024-04-22T11:26:00.460Z,8.82
2024-04-22T11:28:27.172Z,8.77
2024-04-22T11:30:55.451Z,8.71
2024-04-22T11:33:25.667Z,9.18
2024-04-22T11:35:52.482Z,9.32
2024-04-22T11:38:19.362Z,9.11
2024-04-22T11:40:46.330Z,8.91
2024-04-22T11:43:13.818Z,8.76
2024-04-22T11:45:41.336Z,8.61
2024-04-22T11:48:08.437Z,8.55
2024-04-22T11:50:38.205Z,8.59
2024-04-22T11:53:14.710Z,8.60
2024-04-22T11:55:47.935Z,8.64
2024-04-22T11:58:14.813Z,8.83
2024-04-22T12:00:41.583Z,8.99
2024-04-22T12:03:08.560Z,9.03
2024-04-22T12:05:35.628Z,9.01
2024-04-22T12:08:02.357Z,8.84
2024-04-22T12:10:29.212Z,8.76
2024-04-22T12:12:55.780Z,8.66
2024-04-22T12:15:22.464Z,8.45
2024-04-22T12:17:49.073Z,8.42
2024-04-22T12:20:16.267Z,8.40
2024-04-22T12:22:42.925Z,8.38
2024-04-22T12:25:09.527Z,8.44
2024-04-22T12:27:36.219Z,8.51
2024-04-22T12:30:02.858Z,8.52
2024-04-22T12:32:31.198Z,8.56
2024-04-22T12:35:01.191Z,8.55
2024-04-22T12:37:27.829Z,8.55
2024-04-22T12:39:54.422Z,8.56
2024-04-22T12:42:21.120Z,8.50
2024-04-22T12:44:47.837Z,8.37
2024-04-22T12:47:33.123Z,8.29
2024-04-22T12:50:18.498Z,8.17
2024-04-22T12:52:45.204Z,8.10
2024-04-22T12:55:12.411Z,7.99
2024-04-22T12:57:39.267Z,7.90
2024-04-22T13:00:13.605Z,7.87
2024-04-22T13:02:40.788Z,7.80
2024-04-22T13:05:07.523Z,7.77
2024-04-22T13:07:34.231Z,7.73
2024-04-22T13:10:00.890Z,7.77
2024-04-22T13:12:27.997Z,7.84
2024-04-22T13:14:54.696Z,7.93
2024-04-22T13:17:21.466Z,8.00
2024-04-22T13:19:48.192Z,8.11
2024-04-22T13:22:15.154Z,8.30
2024-04-22T13:24:41.841Z,8.46
2024-04-22T13:27:11.288Z,8.42
2024-04-22T13:29:37.862Z,8.44
2024-04-22T13:32:05.041Z,8.34
2024-04-22T13:34:32.100Z,8.24
2024-04-22T13:36:58.757Z,8.22
2024-04-22T13:39:25.980Z,8.22
2024-04-22T13:41:53.381Z,8.18
2024-04-22T13:44:20.089Z,8.13
2024-04-22T13:46:46.926Z,8.03
2024-04-22T13:49:15.238Z,7.94
2024-04-22T13:51:42.304Z,7.92
2024-04-22T13:54:09.572Z,7.87
2024-04-22T13:56:36.723Z,7.75
2024-04-22T13:59:03.962Z,7.73
2024-04-22T14:01:31.234Z,7.63
2024-04-22T14:03:58.013Z,7.55
2024-04-22T14:06:24.672Z,7.60
2024-04-22T14:08:51.535Z,7.63
2024-04-22T14:11:18.418Z,7.66
2024-04-22T14:13:45.425Z,7.71
2024-04-22T14:16:12.157Z,7.76
2024-04-22T14:18:38.825Z,7.72
2024-04-22T14:21:05.614Z,7.69
2024-04-22T14:23:32.233Z,7.71
2024-04-22T14:26:00.417Z,7.69
2024-04-22T14:28:28.525Z,7.63
2024-04-22T14:30:55.940Z,7.56
2024-04-22T14:33:23.887Z,7.53
2024-04-22T14:35:51.190Z,7.54
2024-04-22T14:38:17.906Z,7.51
2024-04-22T14:40:44.707Z,7.45
2024-04-22T14:43:11.478Z,7.40
2024-04-22T14:45:38.370Z,7.38
2024-04-22T14:48:05.552Z,7.43
2024-04-22T14:50:32.194Z,7.45
2024-04-22T14:53:01.417Z,7.47
2024-04-22T14:55:29.468Z,7.50
2024-04-22T14:57:56.163Z,7.56
2024-04-22T15:00:22.797Z,7.65
2024-04-22T15:02:50.135Z,7.75
2024-04-22T15:05:16.994Z,7.81
2024-04-22T15:07:43.654Z,7.77
2024-04-22T15:10:10.318Z,7.73
2024-04-22T15:12:37.070Z,7.68
2024-04-22T15:15:03.886Z,7.45
2024-04-22T15:17:30.656Z,7.48
2024-04-22T15:19:57.522Z,7.44
2024-04-22T15:22:24.331Z,7.45
2024-04-22T15:24:50.908Z,7.40
2024-04-22T15:27:17.576Z,7.42
2024-04-22T15:29:44.206Z,7.42
2024-04-22T15:32:10.923Z,7.37
2024-04-22T15:34:39.696Z,7.27
2024-04-22T15:37:06.642Z,7.25
2024-04-22T15:39:33.569Z,7.21
2024-04-22T15:42:00.252Z,7.22
2024-04-22T15:44:26.807Z,7.27
2024-04-22T15:46:54.311Z,7.28
2024-04-22T15:49:21.098Z,7.30
2024-04-22T15:51:47.677Z,7.27
2024-04-22T15:54:14.274Z,7.29
2024-04-22T15:56:42.357Z,7.29
2024-04-22T15:59:09.352Z,7.28
2024-04-22T16:01:36.740Z,7.27
2024-04-22T16:04:03.788Z,7.26
2024-04-22T16:06:30.524Z,7.21
2024-04-22T16:08:57.138Z,7.17
2024-04-22T16:11:23.743Z,7.16
2024-04-22T16:13:50.532Z,7.16
2024-04-22T16:16:17.183Z,7.12
2024-04-22T16:18:43.801Z,7.11
2024-04-22T16:21:15.366Z,7.11
2024-04-22T16:23:44.193Z,7.07
2024-04-22T16:26:11.433Z,6.99
2024-04-22T16:28:38.212Z,7.01
2024-04-22T16:31:05.007Z,6.99
2024-04-22T16:33:31.684Z,7.01
2024-04-22T16:35:58.370Z,6.98
2024-04-22T16:38:25.128Z,6.99
2024-04-22T16:40:51.955Z,6.99
2024-04-22T16:43:21.378Z,6.98
2024-04-22T16:45:48.503Z,6.95
2024-04-22T16:48:15.435Z,6.90
2024-04-22T16:50:42.695Z,6.92
2024-04-22T16:53:09.356Z,6.92
2024-04-22T16:55:36.088Z,6.88
2024-04-22T16:58:02.887Z,6.90
2024-04-22T17:00:29.896Z,6.91
2024-04-22T17:02:56.538Z,6.89
2024-04-22T17:05:23.159Z,6.89
2024-04-22T17:07:49.988Z,6.89
2024-04-22T17:10:18.988Z,6.89
2024-04-22T17:12:45.808Z,6.84
2024-04-22T17:15:12.689Z,6.81
2024-04-22T17:17:39.520Z,6.81
2024-04-22T17:20:06.955Z,6.75
2024-04-22T17:22:33.565Z,6.68
2024-04-22T17:25:00.247Z,6.70
2024-04-22T17:27:27.003Z,6.65
2024-04-22T17:29:53.816Z,6.65
2024-04-22T17:32:20.573Z,6.63
2024-04-22T17:34:47.690Z,6.58
2024-04-22T17:37:19.061Z,6.51
2024-04-22T17:39:49.637Z,6.46
2024-04-22T17:42:16.227Z,6.38
2024-04-22T17:44:48.378Z,6.24
2024-04-22T17:47:15.149Z,6.24
2024-04-22T17:49:41.784Z,6.17
2024-04-22T17:52:08.399Z,6.17
2024-04-22T17:54:35.013Z,6.12
2024-04-22T17:57:06.848Z,6.08
2024-04-22T17:59:34.318Z,6.01
2024-04-22T18:02:00.898Z,5.98
2024-04-22T18:04:27.736Z,5.93
2024-04-22T18:06:54.395Z,5.88
2024-04-22T18:09:21.055Z,5.84
2024-04-22T18:11:47.799Z,5.72
2024-04-22T18:14:14.419Z,5.78
2024-04-22T18:16:42.342Z,5.75
2024-04-22T18:19:09.094Z,5.65
2024-04-22T18:21:35.748Z,5.67
2024-04-22T18:24:05.184Z,5.58
2024-04-22T18:26:34.055Z,5.58
2024-04-22T18:29:01.066Z,5.51
2024-04-22T18:31:27.757Z,5.55
2024-04-22T18:33:54.351Z,5.51
2024-04-22T18:36:20.915Z,5.44
2024-04-22T18:38:48.974Z,5.46
2024-04-22T18:41:15.914Z,5.48
2024-04-22T18:43:42.675Z,5.47
2024-04-22T18:46:09.683Z,5.46
2024-04-22T18:48:36.466Z,5.39
2024-04-22T18:51:03.337Z,5.38
2024-04-22T18:53:30.172Z,5.36
2024-04-22T18:55:57.098Z,5.33
2024-04-22T18:58:29.064Z,5.30
2024-04-22T19:00:56.048Z,5.27
2024-04-22T19:03:22.718Z,5.27
2024-04-22T19:05:49.438Z,5.26
2024-04-22T19:08:16.080Z,5.26
2024-04-22T19:10:42.962Z,5.22
2024-04-22T19:13:09.717Z,5.24
2024-04-22T19:15:36.356Z,5.18
2024-04-22T19:18:03.234Z,5.24
2024-04-22T19:20:29.967Z,5.22
2024-04-22T19:22:56.706Z,5.21
2024-04-22T19:25:23.515Z,5.22
2024-04-22T19:27:52.184Z,5.21
2024-04-22T19:30:19.448Z,5.21
2024-04-22T19:32:46.416Z,5.19
2024-04-22T19:35:13.396Z,5.18
2024-04-22T19:37:40.824Z,5.16
2024-04-22T19:40:08.106Z,5.13
2024-04-22T19:42:34.768Z,5.13
2024-04-22T19:45:03.571Z,5.13
2024-04-22T19:47:30.469Z,5.11
2024-04-22T19:49:57.220Z,5.05
2024-04-22T19:52:24.057Z,5.08
2024-04-22T19:54:53.163Z,5.06
2024-04-22T19:57:22.715Z,5.07
2024-04-22T19:59:50.998Z,5.04
2024-04-22T20:02:17.994Z,5.01
2024-04-22T20:04:45.329Z,4.95
2024-04-22T20:07:12.405Z,4.92
2024-04-22T20:09:39.056Z,4.90
2024-04-22T20:12:06.164Z,4.88
2024-04-22T20:14:32.793Z,4.84
2024-04-22T20:17:00.812Z,4.84
2024-04-22T20:19:29.303Z,4.83
2024-04-22T20:21:56.180Z,4.78
2024-04-22T20:24:23.081Z,4.75
2024-04-22T20:26:49.706Z,4.72
2024-04-22T20:29:18.582Z,4.69
2024-04-22T20:31:45.386Z,4.68
2024-04-22T20:34:12.295Z,4.67
2024-04-22T20:36:39.456Z,4.61
2024-04-22T20:39:06.081Z,4.58
2024-04-22T20:41:32.808Z,4.58
2024-04-22T20:44:00.794Z,4.56
2024-04-22T20:46:27.612Z,4.53
2024-04-22T20:48:54.436Z,4.56
2024-04-22T20:51:21.133Z,4.59
2024-04-22T20:53:47.854Z,4.57
2024-04-22T20:56:14.471Z,4.54
2024-04-22T20:58:41.207Z,4.52
2024-04-22T21:01:10.463Z,4.48
2024-04-22T21:03:37.645Z,4.36
2024-04-22T21:06:05.449Z,4.37
2024-04-22T21:08:32.819Z,4.35
2024-04-22T21:11:02.572Z,4.33
2024-04-22T21:13:33.347Z,4.33
2024-04-22T21:16:00.160Z,4.31
2024-04-22T21:18:26.787Z,4.28
2024-04-22T21:20:53.418Z,4.29
2024-04-22T21:23:20.019Z,4.28
2024-04-22T21:25:46.684Z,4.29
2024-04-22T21:28:13.346Z,4.27
2024-04-22T21:30:40.024Z,4.28
2024-04-22T21:33:25.999Z,4.29
2024-04-22T21:35:53.590Z,4.28
2024-04-22T21:38:20.284Z,4.26
2024-04-22T21:40:47.548Z,4.24
2024-04-22T21:43:14.853Z,4.20
2024-04-22T21:45:41.830Z,4.15
2024-04-22T21:48:08.517Z,4.12
2024-04-22T21:50:35.737Z,4.07
2024-04-22T21:53:02.560Z,4.05
2024-04-22T21:55:49.249Z,4.02
2024-04-22T21:58:53.365Z,3.97
2024-04-22T22:01:57.631Z,3.91
2024-04-22T22:05:02.216Z,3.83
2024-04-22T22:07:28.816Z,3.74
2024-04-22T22:09:56.051Z,3.68
2024-04-22T22:12:24.414Z,3.65
2024-04-22T22:14:52.302Z,3.62
2024-04-22T22:17:19.181Z,3.62
2024-04-22T22:19:47.367Z,3.62
2024-04-22T22:22:14.100Z,3.60
2024-04-22T22:24:42.700Z,3.59
2024-04-22T22:27:11.338Z,3.60
2024-04-22T22:29:38.529Z,3.61
2024-04-22T22:32:05.901Z,3.62
2024-04-22T22:34:32.835Z,3.63
2024-04-22T22:37:04.401Z,3.63
2024-04-22T22:39:31.367Z,3.58
2024-04-22T22:41:58.104Z,3.56
2024-04-22T22:44:25.947Z,3.55
2024-04-22T22:47:02.328Z,3.58
2024-04-22T22:49:47.616Z,3.55
2024-04-22T22:52:14.233Z,3.54
2024-04-22T22:54:40.831Z,3.53
2024-04-22T22:57:09.684Z,3.50
2024-04-22T22:59:36.247Z,3.48
2024-04-22T23:02:02.860Z,3.46
2024-04-22T23:04:29.658Z,3.44
2024-04-22T23:07:03.341Z,3.36
2024-04-22T23:09:29.979Z,3.33
2024-04-22T23:11:56.608Z,3.33
2024-04-22T23:14:23.165Z,3.31
2024-04-22T23:16:50.205Z,3.30
2024-04-22T23:19:16.869Z,3.29
2024-04-22T23:21:43.541Z,3.26
2024-04-22T23:24:10.361Z,3.24
2024-04-22T23:26:36.947Z,3.17
2024-04-22T23:29:03.570Z,3.13
2024-04-22T23:31:30.243Z,3.08
2024-04-22T23:33:56.809Z,3.10
2024-04-22T23:36:23.395Z,3.09
2024-04-22T23:38:49.968Z,3.09
2024-04-22T23:41:16.517Z,3.07
2024-04-22T23:43:45.003Z,3.04
2024-04-22T23:46:11.669Z,3.05
2024-04-22T23:48:38.233Z,3.04
2024-04-22T23:51:04.939Z,3.04
2024-04-22T23:53:31.495Z,3.05
2024-04-22T23:55:58.137Z,3.04
2024-04-22T23:58:24.919Z,3.00
